createdAt,value
2022-08-05T00:00:23.162Z,18.72
2022-08-05T00:01:27.748Z,18.68
2022-08-05T00:02:23.179Z,18.72
2022-08-05T00:03:23.077Z,18.67
2022-08-05T00:04:23.062Z,18.64
2022-08-05T00:05:27.101Z,18.61
2022-08-05T00:06:32.449Z,18.58
2022-08-05T00:07:58.775Z,18.57
2022-08-05T00:08:34.835Z,18.57
2022-08-05T00:09:23.030Z,18.59
2022-08-05T00:10:27.268Z,18.64
2022-08-05T00:11:30.673Z,18.65
2022-08-05T00:12:23.031Z,18.64
2022-08-05T00:13:38.215Z,18.64
2022-08-05T00:14:27.804Z,18.62
2022-08-05T00:15:57.656Z,18.61
2022-08-05T00:16:36.354Z,18.61
2022-08-05T00:17:23.304Z,18.61
2022-08-05T00:18:22.993Z,18.61
2022-08-05T00:19:23.300Z,18.61
2022-08-05T00:20:22.891Z,18.61
2022-08-05T00:21:22.885Z,18.62
2022-08-05T00:22:22.896Z,18.61
2022-08-05T00:23:44.231Z,18.57
2022-08-05T00:24:24.882Z,18.55
2022-08-05T00:25:22.841Z,18.54
2022-08-05T00:26:22.817Z,18.50
2022-08-05T00:27:22.952Z,18.47
2022-08-05T00:28:29.418Z,18.46
2022-08-05T00:29:25.750Z,18.43
2022-08-05T00:30:29.289Z,18.39
2022-08-05T00:31:54.332Z,18.39
2022-08-05T00:32:22.763Z,18.34
2022-08-05T00:34:53.754Z,18.33
2022-08-05T00:35:09.593Z,18.31
2022-08-05T00:35:22.731Z,18.28
2022-08-05T00:37:09.225Z,18.28
2022-08-05T00:37:22.710Z,18.28
2022-08-05T00:38:28.837Z,18.27
2022-08-05T00:39:22.746Z,18.24
2022-08-05T00:40:28.179Z,18.25
2022-08-05T00:41:22.663Z,18.24
2022-08-05T00:42:32.187Z,18.22
2022-08-05T00:43:22.646Z,18.19
2022-08-05T00:44:23.163Z,18.19
2022-08-05T00:45:38.446Z,18.19
2022-08-05T00:46:42.615Z,18.19
2022-08-05T00:47:22.658Z,18.18
2022-08-05T00:48:27.742Z,18.19
2022-08-05T00:49:22.582Z,18.18
2022-08-05T00:50:25.361Z,18.18
2022-08-05T00:51:50.251Z,18.15
2022-08-05T00:52:28.326Z,18.12
2022-08-05T00:54:00.467Z,18.09
2022-08-05T00:54:22.551Z,18.07
2022-08-05T00:55:22.524Z,18.06
2022-08-05T00:56:22.944Z,18.04
2022-08-05T00:57:22.873Z,18.02
2022-08-05T00:58:27.510Z,18.00
2022-08-05T00:59:22.492Z,17.99
2022-08-05T01:00:22.483Z,17.97
2022-08-05T01:01:43.008Z,17.99
2022-08-05T01:02:22.444Z,17.95
2022-08-05T01:03:23.437Z,17.94
2022-08-05T01:04:27.016Z,17.94
2022-08-05T01:05:22.411Z,17.92
2022-08-05T01:06:22.411Z,17.91
2022-08-05T01:07:22.391Z,17.92
2022-08-05T01:08:30.789Z,17.92
2022-08-05T01:09:22.724Z,17.92
2022-08-05T01:10:25.740Z,17.92
2022-08-05T01:11:33.701Z,17.91
2022-08-05T01:12:22.362Z,17.91
2022-08-05T01:13:27.223Z,17.91
2022-08-05T01:14:27.741Z,17.92
2022-08-05T01:15:36.286Z,17.92
2022-08-05T01:16:26.452Z,17.92
2022-08-05T01:17:22.539Z,17.91
2022-08-05T01:18:22.316Z,17.91
2022-08-05T01:19:46.186Z,17.92
2022-08-05T01:20:22.426Z,17.94
2022-08-05T01:21:22.789Z,17.91
2022-08-05T01:22:24.446Z,17.91
2022-08-05T01:23:23.369Z,17.89
2022-08-05T01:24:22.238Z,17.89
2022-08-05T01:25:22.188Z,17.88
2022-08-05T01:26:26.295Z,17.88
2022-08-05T01:27:22.340Z,17.88
2022-08-05T01:28:22.162Z,17.91
2022-08-05T01:29:23.025Z,17.92
2022-08-05T01:30:34.760Z,17.91
2022-08-05T01:31:22.131Z,17.92
2022-08-05T01:32:22.113Z,17.92
2022-08-05T01:33:22.100Z,17.94
2022-08-05T01:34:22.122Z,17.94
2022-08-05T01:35:51.620Z,17.95
2022-08-05T01:36:28.284Z,17.94
2022-08-05T01:37:24.630Z,17.95
2022-08-05T01:38:24.750Z,17.95
2022-08-05T01:39:47.293Z,17.94
2022-08-05T01:40:22.086Z,17.94
2022-08-05T01:41:22.121Z,17.92
2022-08-05T01:42:22.025Z,17.94
2022-08-05T01:43:24.225Z,17.92
2022-08-05T01:44:22.055Z,17.94
2022-08-05T01:45:21.972Z,17.92
2022-08-05T01:46:42.332Z,17.91
2022-08-05T01:47:22.341Z,17.89
2022-08-05T01:48:21.975Z,17.91
2022-08-05T01:49:23.352Z,17.91
2022-08-05T01:50:28.817Z,17.94
2022-08-05T01:51:21.933Z,17.92
2022-08-05T01:52:21.892Z,17.92
2022-08-05T01:53:55.151Z,17.92
2022-08-05T01:54:24.650Z,17.91
2022-08-05T01:55:21.860Z,17.91
2022-08-05T01:58:09.706Z,17.89
2022-08-05T01:58:29.824Z,17.91
2022-08-05T01:58:45.842Z,17.91
2022-08-05T01:59:28.902Z,17.91
2022-08-05T02:00:29.871Z,17.91
2022-08-05T02:01:28.935Z,17.91
2022-08-05T02:02:28.872Z,17.91
2022-08-05T02:03:33.951Z,17.88
2022-08-05T02:04:28.802Z,17.88
2022-08-05T02:05:28.891Z,17.88
2022-08-05T02:06:37.191Z,17.87
2022-08-05T02:07:30.212Z,17.85
2022-08-05T02:08:30.897Z,17.84
2022-08-05T02:09:28.747Z,17.84
2022-08-05T02:10:29.197Z,17.82
2022-08-05T02:11:32.747Z,17.79
2022-08-05T02:12:28.714Z,17.78
2022-08-05T02:13:28.701Z,17.79
2022-08-05T02:14:28.678Z,17.78
2022-08-05T02:15:33.449Z,17.76
2022-08-05T02:16:28.695Z,17.78
2022-08-05T02:18:28.317Z,17.74
2022-08-05T02:18:41.994Z,17.74
2022-08-05T02:19:28.629Z,17.73
2022-08-05T02:20:28.642Z,17.74
2022-08-05T02:21:28.631Z,17.76
2022-08-05T02:22:28.604Z,17.76
2022-08-05T02:23:28.617Z,17.74
2022-08-05T02:24:28.586Z,17.74
2022-08-05T02:25:32.970Z,17.76
2022-08-05T02:26:28.583Z,17.74
2022-08-05T02:27:29.908Z,17.73
2022-08-05T02:28:34.079Z,17.74
2022-08-05T02:29:59.938Z,17.76
2022-08-05T02:30:28.518Z,17.74
2022-08-05T02:31:28.617Z,17.73
2022-08-05T02:32:30.891Z,17.73
2022-08-05T02:33:35.867Z,17.74
2022-08-05T02:34:28.465Z,17.73
2022-08-05T02:35:33.196Z,17.73
2022-08-05T02:36:31.487Z,17.74
2022-08-05T02:37:28.447Z,17.74
2022-08-05T02:38:32.532Z,17.74
2022-08-05T02:39:28.501Z,17.73
2022-08-05T02:40:28.400Z,17.73
2022-08-05T02:41:42.864Z,17.73
2022-08-05T02:42:31.960Z,17.74
2022-08-05T02:43:28.413Z,17.73
2022-08-05T02:44:28.358Z,17.71
2022-08-05T02:45:28.620Z,17.70
2022-08-05T02:46:28.336Z,17.69
2022-08-05T02:47:58.566Z,17.70
2022-08-05T02:48:29.397Z,17.70
2022-08-05T02:49:36.153Z,17.70
2022-08-05T02:50:28.329Z,17.76
2022-08-05T02:52:01.199Z,17.76
2022-08-05T02:52:29.919Z,17.76
2022-08-05T02:53:28.555Z,17.74
2022-08-05T02:54:36.091Z,17.73
2022-08-05T02:55:52.178Z,17.73
2022-08-05T02:56:28.237Z,17.71
2022-08-05T02:58:20.136Z,17.70
2022-08-05T02:58:30.040Z,17.73
2022-08-05T02:59:28.245Z,17.73
2022-08-05T03:00:28.506Z,17.71
2022-08-05T03:01:28.227Z,17.70
2022-08-05T03:02:28.162Z,17.69
2022-08-05T03:03:28.154Z,17.70
2022-08-05T03:04:28.147Z,17.70
2022-08-05T03:06:54.001Z,17.71
2022-08-05T03:07:04.012Z,17.70
2022-08-05T03:08:01.213Z,17.69
2022-08-05T03:08:29.888Z,17.70
2022-08-05T03:09:37.566Z,17.69
2022-08-05T03:10:28.090Z,17.69
2022-08-05T03:11:55.218Z,17.67
2022-08-05T03:12:28.096Z,17.69
2022-08-05T03:13:28.050Z,17.69
2022-08-05T03:14:28.047Z,17.66
2022-08-05T03:15:28.043Z,17.67
2022-08-05T03:16:28.036Z,17.67
2022-08-05T03:17:28.041Z,17.66
2022-08-05T03:18:30.004Z,17.66
2022-08-05T03:19:34.439Z,17.67
2022-08-05T03:20:27.997Z,17.64
2022-08-05T03:21:28.696Z,17.66
2022-08-05T03:22:32.196Z,17.66
2022-08-05T03:23:27.981Z,17.63
2022-08-05T03:24:29.932Z,17.59
2022-08-05T03:26:03.754Z,17.57
2022-08-05T03:26:34.531Z,17.57
2022-08-05T03:27:29.762Z,17.57
2022-08-05T03:28:27.874Z,17.54
2022-08-05T03:29:45.748Z,17.55
2022-08-05T03:30:33.481Z,17.54
2022-08-05T03:31:56.019Z,17.51
2022-08-05T03:32:30.673Z,17.48
2022-08-05T03:33:42.189Z,17.46
2022-08-05T03:34:27.813Z,17.47
2022-08-05T03:35:27.849Z,17.47
2022-08-05T03:36:30.577Z,17.46
2022-08-05T03:37:27.802Z,17.44
2022-08-05T03:38:33.112Z,17.46
2022-08-05T03:39:27.988Z,17.44
2022-08-05T03:40:31.879Z,17.40
2022-08-05T03:41:33.160Z,17.40
2022-08-05T03:42:29.175Z,17.38
2022-08-05T03:44:09.334Z,17.38
2022-08-05T03:44:28.992Z,17.40
2022-08-05T03:45:27.709Z,17.40
2022-08-05T03:46:29.717Z,17.40
2022-08-05T03:47:35.100Z,17.36
2022-08-05T03:48:28.166Z,17.38
2022-08-05T03:49:31.117Z,17.36
2022-08-05T03:50:27.647Z,17.36
2022-08-05T03:52:49.071Z,17.35
2022-08-05T03:56:01.562Z,17.33
2022-08-05T03:56:18.072Z,17.32
2022-08-05T03:56:36.480Z,17.35
2022-08-05T03:57:42.042Z,17.32
2022-08-05T03:58:29.083Z,17.33
2022-08-05T03:59:24.650Z,17.30
2022-08-05T04:00:24.115Z,17.28
2022-08-05T04:01:24.127Z,17.26
2022-08-05T04:02:38.824Z,17.26
2022-08-05T04:03:28.917Z,17.26
2022-08-05T04:04:24.011Z,17.26
2022-08-05T04:05:24.013Z,17.28
2022-08-05T04:06:24.023Z,17.22
2022-08-05T04:07:24.931Z,17.18
2022-08-05T04:08:35.327Z,17.20
2022-08-05T04:09:26.473Z,17.20
2022-08-05T04:10:23.943Z,17.17
2022-08-05T04:11:23.945Z,17.17
2022-08-05T04:12:24.855Z,17.14
2022-08-05T04:13:23.944Z,17.11
2022-08-05T04:14:29.405Z,17.11
2022-08-05T04:15:24.439Z,17.08
2022-08-05T04:16:24.211Z,17.08
2022-08-05T04:17:24.117Z,17.07
2022-08-05T04:18:25.593Z,17.06
2022-08-05T04:19:23.853Z,17.07
2022-08-05T04:20:23.852Z,17.10
2022-08-05T04:22:08.714Z,17.08
2022-08-05T04:22:23.823Z,17.08
2022-08-05T04:24:05.851Z,17.06
2022-08-05T04:24:23.846Z,17.06
2022-08-05T04:25:24.284Z,17.04
2022-08-05T04:26:23.795Z,17.06
2022-08-05T04:27:32.994Z,17.07
2022-08-05T04:28:30.732Z,17.08
2022-08-05T04:29:23.763Z,17.08
2022-08-05T04:30:23.781Z,17.08
2022-08-05T04:31:23.738Z,17.08
2022-08-05T04:32:31.267Z,17.10
2022-08-05T04:33:54.743Z,17.08
2022-08-05T04:34:32.706Z,17.07
2022-08-05T04:35:23.698Z,17.08
2022-08-05T04:36:49.796Z,17.08
2022-08-05T04:38:01.696Z,17.04
2022-08-05T04:38:23.652Z,17.04
2022-08-05T04:39:23.714Z,17.04
2022-08-05T04:40:23.643Z,17.06
2022-08-05T04:41:36.677Z,17.04
2022-08-05T04:42:25.438Z,17.03
2022-08-05T04:43:23.627Z,16.98
2022-08-05T04:44:29.224Z,16.96
2022-08-05T04:45:47.921Z,16.96
2022-08-05T04:46:28.214Z,16.95
2022-08-05T04:47:23.725Z,16.95
2022-08-05T04:48:27.534Z,16.95
2022-08-05T04:49:24.873Z,16.92
2022-08-05T04:50:37.228Z,16.90
2022-08-05T04:51:23.530Z,16.90
2022-08-05T04:52:23.503Z,16.90
2022-08-05T04:53:23.493Z,16.90
2022-08-05T04:54:23.519Z,16.89
2022-08-05T04:56:15.321Z,16.89
2022-08-05T04:56:38.858Z,16.90
2022-08-05T04:57:23.691Z,16.89
2022-08-05T04:58:23.481Z,16.81
2022-08-05T04:59:33.547Z,16.81
2022-08-05T05:00:23.905Z,16.78
2022-08-05T05:01:33.436Z,16.78
2022-08-05T05:02:36.358Z,16.75
2022-08-05T05:03:23.379Z,16.74
2022-08-05T05:04:23.370Z,16.74
2022-08-05T05:05:28.597Z,16.74
2022-08-05T05:06:39.034Z,16.73
2022-08-05T05:07:24.061Z,16.71
2022-08-05T05:08:26.698Z,16.71
2022-08-05T05:09:23.339Z,16.73
2022-08-05T05:10:23.309Z,16.71
2022-08-05T05:11:23.290Z,16.74
2022-08-05T05:12:23.355Z,16.74
2022-08-05T05:13:23.264Z,16.75
2022-08-05T05:14:28.190Z,16.75
2022-08-05T05:15:57.107Z,16.75
2022-08-05T05:16:23.383Z,16.75
2022-08-05T05:17:24.894Z,16.74
2022-08-05T05:18:31.123Z,16.74
2022-08-05T05:19:26.598Z,16.75
2022-08-05T05:20:23.211Z,16.75
2022-08-05T05:21:23.190Z,16.75
2022-08-05T05:22:26.557Z,16.75
2022-08-05T05:23:23.171Z,16.75
2022-08-05T05:24:23.194Z,16.77
2022-08-05T05:25:32.704Z,16.77
2022-08-05T05:26:28.370Z,16.77
2022-08-05T05:27:23.393Z,16.78
2022-08-05T05:28:23.111Z,16.80
2022-08-05T05:29:23.106Z,16.80
2022-08-05T05:30:29.664Z,16.83
2022-08-05T05:31:23.081Z,16.86
2022-08-05T05:32:23.372Z,16.86
2022-08-05T05:33:23.277Z,16.88
2022-08-05T05:34:26.657Z,16.86
2022-08-05T05:35:23.088Z,16.86
2022-08-05T05:36:23.065Z,16.89
2022-08-05T05:37:23.251Z,16.89
2022-08-05T05:38:27.560Z,16.90
2022-08-05T05:39:23.108Z,16.89
2022-08-05T05:40:22.992Z,16.90
2022-08-05T05:41:22.983Z,16.89
2022-08-05T05:42:23.014Z,16.90
2022-08-05T05:43:54.546Z,16.92
2022-08-05T05:44:36.583Z,16.90
2022-08-05T05:45:22.961Z,16.92
2022-08-05T05:46:22.929Z,16.92
2022-08-05T05:47:22.901Z,16.93
2022-08-05T05:48:27.559Z,16.95
2022-08-05T05:49:23.438Z,16.95
2022-08-05T05:50:22.874Z,16.96
2022-08-05T05:51:23.304Z,16.96
2022-08-05T05:52:28.667Z,16.96
2022-08-05T05:53:23.092Z,16.98
2022-08-05T05:54:22.869Z,16.95
2022-08-05T05:55:22.836Z,16.92
2022-08-05T05:56:31.421Z,16.90
2022-08-05T05:57:22.830Z,16.92
2022-08-05T05:58:23.148Z,16.93
2022-08-05T05:59:22.776Z,16.98
2022-08-05T06:00:31.451Z,16.98
2022-08-05T06:01:23.477Z,17.00
2022-08-05T06:02:32.744Z,17.03
2022-08-05T06:03:40.741Z,17.07
2022-08-05T06:04:23.281Z,17.08
2022-08-05T06:05:22.770Z,17.10
2022-08-05T06:06:22.729Z,17.06
2022-08-05T06:07:22.952Z,17.08
2022-08-05T06:08:31.665Z,17.08
2022-08-05T06:09:27.436Z,17.08
2022-08-05T06:10:22.669Z,17.10
2022-08-05T06:11:22.673Z,17.10
2022-08-05T06:12:22.662Z,17.10
2022-08-05T06:13:22.630Z,17.08
2022-08-05T06:14:22.676Z,17.11
2022-08-05T06:15:24.200Z,17.11
2022-08-05T06:16:28.159Z,17.11
2022-08-05T06:17:24.322Z,17.15
2022-08-05T06:18:31.154Z,17.11
2022-08-05T06:19:26.292Z,17.08
2022-08-05T06:20:22.554Z,17.13
2022-08-05T06:21:22.533Z,17.14
2022-08-05T06:22:22.533Z,17.13
2022-08-05T06:23:22.899Z,17.13
2022-08-05T06:24:27.211Z,17.13
2022-08-05T06:25:25.322Z,17.10
2022-08-05T06:26:24.027Z,17.07
2022-08-05T06:28:11.467Z,17.06
2022-08-05T06:28:23.949Z,17.07
2022-08-05T06:29:25.434Z,17.04
2022-08-05T06:30:22.479Z,17.03
2022-08-05T06:31:22.673Z,17.03
2022-08-05T06:32:28.706Z,17.04
2022-08-05T06:33:33.377Z,17.06
2022-08-05T06:34:22.410Z,17.07
2022-08-05T06:36:07.664Z,17.04
2022-08-05T06:36:25.970Z,17.00
2022-08-05T06:37:57.764Z,17.03
2022-08-05T06:38:35.768Z,17.00
2022-08-05T06:39:22.417Z,17.00
2022-08-05T06:40:27.975Z,17.00
2022-08-05T06:41:22.432Z,16.98
2022-08-05T06:42:22.672Z,17.03
2022-08-05T06:43:57.350Z,17.04
2022-08-05T06:44:22.335Z,17.08
2022-08-05T06:45:44.718Z,17.08
2022-08-05T06:46:22.280Z,17.14
2022-08-05T06:48:11.647Z,17.17
2022-08-05T06:48:56.389Z,17.20
2022-08-05T06:50:01.113Z,17.23
2022-08-05T06:50:22.232Z,17.17
2022-08-05T06:51:29.084Z,17.15
2022-08-05T06:52:36.681Z,17.17
2022-08-05T06:53:22.519Z,17.18
2022-08-05T06:54:25.783Z,17.20
2022-08-05T06:55:22.501Z,17.20
2022-08-05T06:56:26.573Z,17.15
2022-08-05T06:57:57.282Z,17.17
2022-08-05T06:58:34.866Z,17.15
2022-08-05T06:59:22.125Z,17.14
2022-08-05T07:00:24.684Z,17.11
2022-08-05T07:01:22.678Z,17.11
2022-08-05T07:02:22.826Z,17.07
2022-08-05T07:03:22.082Z,17.10
2022-08-05T07:04:22.096Z,17.07
2022-08-05T07:05:36.939Z,17.07
2022-08-05T07:06:22.096Z,17.06
2022-08-05T07:07:24.011Z,17.06
2022-08-05T07:08:22.035Z,17.04
2022-08-05T07:09:24.890Z,17.06
2022-08-05T07:10:22.036Z,17.03
2022-08-05T07:11:25.434Z,17.03
2022-08-05T07:12:22.010Z,17.04
2022-08-05T07:13:55.068Z,17.06
2022-08-05T07:14:29.346Z,17.04
2022-08-05T07:15:34.047Z,17.06
2022-08-05T07:18:01.614Z,17.04
2022-08-05T07:18:26.945Z,17.03
2022-08-05T07:18:34.182Z,17.03
2022-08-05T07:20:10.636Z,17.00
2022-08-05T07:20:38.769Z,16.99
2022-08-05T07:21:25.593Z,16.98
2022-08-05T07:22:29.064Z,17.03
2022-08-05T07:23:26.458Z,17.00
2022-08-05T07:24:24.226Z,17.03
2022-08-05T07:25:56.493Z,16.99
2022-08-05T07:26:25.645Z,17.03
2022-08-05T07:27:27.342Z,17.03
2022-08-05T07:28:24.208Z,17.03
2022-08-05T07:30:21.908Z,17.06
2022-08-05T07:30:32.715Z,17.03
2022-08-05T07:31:54.065Z,17.00
2022-08-05T07:32:26.210Z,17.03
2022-08-05T07:33:36.520Z,17.03
2022-08-05T07:34:28.412Z,16.96
2022-08-05T07:35:55.976Z,16.98
2022-08-05T07:36:24.065Z,16.95
2022-08-05T07:37:24.297Z,16.92
2022-08-05T07:38:32.273Z,16.92
2022-08-05T07:39:24.873Z,16.93
2022-08-05T07:40:32.896Z,16.95
2022-08-05T07:42:13.174Z,16.98
2022-08-05T07:42:33.394Z,16.96
2022-08-05T07:43:23.982Z,16.99
2022-08-05T07:44:23.979Z,17.03
2022-08-05T07:45:56.537Z,17.00
2022-08-05T07:46:25.517Z,17.00
2022-08-05T07:47:24.140Z,16.99
2022-08-05T07:49:01.422Z,17.04
2022-08-05T07:49:23.921Z,17.06
2022-08-05T07:50:28.825Z,17.04
2022-08-05T07:51:37.608Z,17.03
2022-08-05T07:52:24.032Z,16.98
2022-08-05T07:53:23.879Z,16.96
2022-08-05T07:54:26.571Z,16.96
2022-08-05T07:56:05.903Z,16.95
2022-08-05T07:57:13.788Z,16.93
2022-08-05T07:57:58.813Z,16.96
2022-08-05T07:58:57.322Z,16.99
2022-08-05T07:59:38.271Z,17.03
2022-08-05T08:00:23.824Z,17.06
2022-08-05T08:01:23.827Z,17.07
2022-08-05T08:02:26.835Z,17.13
2022-08-05T08:03:23.814Z,17.14
2022-08-05T08:04:38.119Z,17.17
2022-08-05T08:05:23.739Z,17.18
2022-08-05T08:06:23.730Z,17.18
2022-08-05T08:07:23.933Z,17.18
2022-08-05T08:08:23.727Z,17.14
2022-08-05T08:09:24.009Z,17.11
2022-08-05T08:10:23.763Z,17.08
2022-08-05T08:11:27.623Z,17.03
2022-08-05T08:12:35.157Z,17.00
2022-08-05T08:13:29.322Z,16.98
2022-08-05T08:14:23.685Z,16.95
2022-08-05T08:15:37.320Z,16.92
2022-08-05T08:16:51.211Z,16.89
2022-08-05T08:17:23.899Z,16.90
2022-08-05T08:18:23.616Z,16.92
2022-08-05T08:20:22.669Z,16.92
2022-08-05T08:21:02.836Z,16.92
2022-08-05T08:21:23.580Z,16.89
2022-08-05T08:22:23.567Z,16.90
2022-08-05T08:24:03.013Z,16.92
2022-08-05T08:24:23.543Z,16.92
2022-08-05T08:25:26.800Z,16.90
2022-08-05T08:26:29.354Z,16.96
2022-08-05T08:27:23.750Z,16.95
2022-08-05T08:28:35.754Z,16.96
2022-08-05T08:30:06.088Z,16.99
2022-08-05T08:30:32.560Z,17.06
2022-08-05T08:31:23.466Z,17.07
2022-08-05T08:32:28.068Z,17.08
2022-08-05T08:33:23.441Z,17.06
2022-08-05T08:34:30.157Z,17.07
2022-08-05T08:35:26.571Z,17.13
2022-08-05T08:36:38.428Z,17.14
2022-08-05T08:37:27.890Z,17.22
2022-08-05T08:38:35.858Z,17.26
2022-08-05T08:39:23.452Z,17.29
2022-08-05T08:40:23.386Z,17.35
2022-08-05T08:41:26.261Z,17.36
2022-08-05T08:42:34.043Z,17.38
2022-08-05T08:45:20.946Z,17.38
2022-08-05T08:45:30.824Z,17.33
2022-08-05T08:45:36.246Z,17.32
2022-08-05T08:46:36.253Z,17.26
2022-08-05T08:48:06.915Z,17.22
2022-08-05T08:49:02.455Z,17.14
2022-08-05T08:50:12.806Z,17.10
2022-08-05T08:51:22.519Z,17.08
2022-08-05T08:52:13.657Z,17.04
2022-08-05T08:52:36.189Z,17.04
2022-08-05T08:53:36.185Z,17.06
2022-08-05T08:54:36.645Z,17.06
2022-08-05T08:56:03.731Z,17.07
2022-08-05T08:56:36.202Z,17.06
2022-08-05T08:57:42.163Z,17.06
2022-08-05T08:58:43.019Z,17.04
2022-08-05T08:59:36.127Z,17.06
2022-08-05T09:00:36.427Z,17.07
2022-08-05T09:01:36.108Z,17.08
2022-08-05T09:02:36.106Z,17.04
2022-08-05T09:03:45.053Z,17.07
2022-08-05T09:04:36.066Z,17.06
2022-08-05T09:05:38.395Z,17.06
2022-08-05T09:06:36.480Z,17.04
2022-08-05T09:07:39.743Z,17.04
2022-08-05T09:08:36.049Z,17.04
2022-08-05T09:09:35.989Z,17.03
2022-08-05T09:10:36.002Z,17.06
2022-08-05T09:11:51.301Z,17.04
2022-08-05T09:12:35.970Z,17.00
2022-08-05T09:14:00.700Z,16.99
2022-08-05T09:14:56.990Z,16.99
2022-08-05T09:15:36.994Z,17.00
2022-08-05T09:16:35.948Z,17.00
2022-08-05T09:17:40.671Z,16.99
2022-08-05T09:18:39.022Z,16.98
2022-08-05T09:19:36.830Z,16.98
2022-08-05T09:20:37.284Z,16.99
2022-08-05T09:22:22.888Z,16.98
2022-08-05T09:22:36.503Z,16.99
2022-08-05T09:23:37.406Z,16.99
2022-08-05T09:24:35.831Z,16.98
2022-08-05T09:26:00.898Z,16.98
2022-08-05T09:26:35.846Z,16.95
2022-08-05T09:28:04.599Z,16.93
2022-08-05T09:28:35.797Z,16.90
2022-08-05T09:29:35.771Z,16.89
2022-08-05T09:30:35.775Z,16.89
2022-08-05T09:32:40.017Z,16.88
2022-08-05T09:32:47.233Z,16.89
2022-08-05T09:33:35.741Z,16.93
2022-08-05T09:34:35.723Z,16.95
2022-08-05T09:35:35.730Z,16.98
2022-08-05T09:36:35.698Z,17.00
2022-08-05T09:38:12.689Z,17.03
2022-08-05T09:38:35.715Z,17.06
2022-08-05T09:39:41.531Z,17.04
2022-08-05T09:40:35.715Z,17.06
2022-08-05T09:41:39.042Z,17.06
2022-08-05T09:42:35.643Z,17.08
2022-08-05T09:43:40.538Z,17.10
2022-08-05T09:44:35.653Z,17.15
2022-08-05T09:46:06.439Z,17.15
2022-08-05T09:46:35.596Z,17.17
2022-08-05T09:47:55.089Z,17.20
2022-08-05T09:48:35.580Z,17.25
2022-08-05T09:49:40.320Z,17.26
2022-08-05T09:50:38.679Z,17.30
2022-08-05T09:51:36.581Z,17.33
2022-08-05T09:52:35.541Z,17.33
2022-08-05T09:53:54.691Z,17.36
2022-08-05T09:54:35.532Z,17.38
2022-08-05T09:55:56.833Z,17.40
2022-08-05T09:56:35.532Z,17.43
2022-08-05T09:57:35.500Z,17.44
2022-08-05T09:58:35.470Z,17.46
2022-08-05T09:59:37.176Z,17.47
2022-08-05T10:00:35.440Z,17.48
2022-08-05T10:01:35.438Z,17.51
2022-08-05T10:02:35.796Z,17.53
2022-08-05T10:03:56.978Z,17.62
2022-08-05T10:04:35.411Z,17.63
2022-08-05T10:05:35.386Z,17.66
2022-08-05T10:06:35.389Z,17.70
2022-08-05T10:08:34.770Z,17.74
2022-08-05T10:08:42.872Z,17.84
2022-08-05T10:09:45.089Z,17.89
2022-08-05T10:10:35.341Z,17.94
2022-08-05T10:11:35.430Z,18.00
2022-08-05T10:12:35.687Z,18.07
2022-08-05T10:13:47.159Z,18.15
2022-08-05T10:14:35.337Z,18.24
2022-08-05T10:15:35.602Z,18.33
2022-08-05T10:16:37.838Z,18.37
2022-08-05T10:17:39.243Z,18.36
2022-08-05T10:18:35.264Z,18.33
2022-08-05T10:20:04.208Z,18.31
2022-08-05T10:20:35.275Z,18.33
2022-08-05T10:21:40.444Z,18.34
2022-08-05T10:22:37.943Z,18.25
2022-08-05T10:23:59.074Z,18.22
2022-08-05T10:24:35.190Z,18.21
2022-08-05T10:25:35.178Z,18.18
2022-08-05T10:26:35.234Z,18.18
2022-08-05T10:28:09.062Z,18.18
2022-08-05T10:28:36.608Z,18.21
2022-08-05T10:30:06.594Z,18.22
2022-08-05T10:32:48.875Z,18.25
2022-08-05T10:33:01.894Z,18.29
2022-08-05T10:33:09.244Z,18.40
2022-08-05T10:34:08.148Z,18.47
2022-08-05T10:35:07.635Z,18.50
2022-08-05T10:36:07.625Z,18.52
2022-08-05T10:37:07.640Z,18.50
2022-08-05T10:38:08.393Z,18.46
2022-08-05T10:39:11.676Z,18.46
2022-08-05T10:40:18.056Z,18.47
2022-08-05T10:41:07.652Z,18.52
2022-08-05T10:42:07.554Z,18.57
2022-08-05T10:43:07.547Z,18.62
2022-08-05T10:44:07.567Z,18.72
2022-08-05T10:45:21.302Z,18.77
2022-08-05T10:46:07.511Z,18.84
2022-08-05T10:47:10.195Z,18.94
2022-08-05T10:48:31.393Z,19.01
2022-08-05T10:49:09.882Z,19.17
2022-08-05T10:50:31.873Z,19.39
2022-08-05T10:51:22.394Z,19.54
2022-08-05T10:52:10.467Z,19.68
2022-08-05T10:53:07.438Z,19.72
2022-08-05T10:54:28.379Z,19.86
2022-08-05T10:55:07.479Z,20.03
2022-08-05T10:56:14.593Z,20.21
2022-08-05T10:57:07.411Z,20.41
2022-08-05T10:58:07.388Z,20.49
2022-08-05T11:00:01.076Z,20.61
2022-08-05T11:00:16.117Z,20.65
2022-08-05T11:01:07.367Z,20.81
2022-08-05T11:02:07.413Z,20.86
2022-08-05T11:03:24.234Z,20.93
2022-08-05T11:04:07.414Z,20.91
2022-08-05T11:05:07.293Z,20.84
2022-08-05T11:06:08.363Z,20.83
2022-08-05T11:07:07.301Z,20.80
2022-08-05T11:08:33.797Z,20.79
2022-08-05T11:09:07.279Z,20.74
2022-08-05T11:10:09.895Z,20.77
2022-08-05T11:11:14.528Z,20.81
2022-08-05T11:12:07.287Z,20.91
2022-08-05T11:13:07.236Z,20.90
2022-08-05T11:14:07.240Z,20.99
2022-08-05T11:15:19.427Z,21.13
2022-08-05T11:16:07.202Z,21.20
2022-08-05T11:17:58.650Z,21.13
2022-08-05T11:18:07.194Z,21.26
2022-08-05T11:20:10.555Z,21.35
2022-08-05T11:20:22.409Z,21.30
2022-08-05T11:21:11.563Z,21.53
2022-08-05T11:22:07.124Z,21.76
2022-08-05T11:23:10.342Z,22.01
2022-08-05T11:24:14.811Z,22.41
2022-08-05T11:25:16.887Z,22.68
2022-08-05T11:26:11.045Z,22.71
2022-08-05T11:27:07.074Z,22.80
2022-08-05T11:28:07.334Z,22.77
2022-08-05T11:29:12.924Z,22.75
2022-08-05T11:30:07.057Z,22.62
2022-08-05T11:31:07.044Z,22.65
2022-08-05T11:32:07.042Z,22.72
2022-08-05T11:33:07.007Z,22.72
2022-08-05T11:34:08.150Z,22.89
2022-08-05T11:35:06.989Z,23.34
2022-08-05T11:36:08.607Z,23.61
2022-08-05T11:38:28.776Z,23.76
2022-08-05T11:38:51.340Z,23.95
2022-08-05T11:39:07.272Z,24.08
2022-08-05T11:40:06.947Z,24.41
2022-08-05T11:41:34.611Z,24.19
2022-08-05T11:42:06.944Z,24.38
2022-08-05T11:43:06.905Z,24.38
2022-08-05T11:44:08.385Z,24.17
2022-08-05T11:45:23.118Z,24.41
2022-08-05T11:46:32.368Z,24.54
2022-08-05T11:47:10.956Z,24.47
2022-08-05T11:48:06.860Z,24.37
2022-08-05T11:49:08.035Z,24.26
2022-08-05T11:50:06.849Z,24.37
2022-08-05T11:51:06.811Z,24.79
2022-08-05T11:52:08.681Z,24.68
2022-08-05T11:53:09.842Z,24.39
2022-08-05T11:54:06.808Z,24.95
2022-08-05T11:55:07.453Z,25.59
2022-08-05T11:56:06.792Z,25.67
2022-08-05T11:57:07.545Z,25.34
2022-08-05T11:58:10.760Z,25.09
2022-08-05T11:59:13.855Z,25.43
2022-08-05T12:00:06.797Z,25.49
2022-08-05T12:01:08.327Z,25.31
2022-08-05T12:02:06.747Z,25.19
2022-08-05T12:03:06.751Z,24.87
2022-08-05T12:04:06.682Z,24.82
2022-08-05T12:05:18.500Z,24.85
2022-08-05T12:06:10.188Z,24.82
2022-08-05T12:07:06.664Z,24.76
2022-08-05T12:08:11.412Z,24.63
2022-08-05T12:09:06.622Z,24.76
2022-08-05T12:10:09.680Z,24.68
2022-08-05T12:11:06.631Z,24.50
2022-08-05T12:12:06.893Z,24.29
2022-08-05T12:13:13.948Z,23.92
2022-08-05T12:14:06.702Z,23.77
2022-08-05T12:15:06.566Z,23.52
2022-08-05T12:16:14.634Z,23.35
2022-08-05T12:18:00.588Z,23.24
2022-08-05T12:18:10.471Z,23.24
2022-08-05T12:19:08.383Z,23.15
2022-08-05T12:20:25.654Z,23.17
2022-08-05T12:21:06.511Z,23.15
2022-08-05T12:22:09.421Z,23.08
2022-08-05T12:23:06.484Z,22.82
2022-08-05T12:24:06.990Z,22.69
2022-08-05T12:25:06.731Z,22.60
2022-08-05T12:26:06.494Z,22.62
2022-08-05T12:27:09.707Z,22.67
2022-08-05T12:28:06.430Z,22.75
2022-08-05T12:29:09.402Z,22.83
2022-08-05T12:30:06.448Z,22.87
2022-08-05T12:31:06.394Z,22.94
2022-08-05T12:32:07.619Z,22.92
2022-08-05T12:33:07.278Z,22.89
2022-08-05T12:34:06.381Z,22.93
2022-08-05T12:35:06.345Z,22.89
2022-08-05T12:36:07.196Z,22.89
2022-08-05T12:37:06.346Z,22.86
2022-08-05T12:38:06.358Z,22.80
2022-08-05T12:39:06.954Z,22.74
2022-08-05T12:40:11.072Z,22.80
2022-08-05T12:41:12.497Z,22.82
2022-08-05T12:42:06.277Z,22.87
2022-08-05T12:43:06.270Z,23.05
2022-08-05T12:44:06.283Z,23.19
2022-08-05T12:45:08.777Z,23.32
2022-08-05T12:46:06.529Z,23.52
2022-08-05T12:47:06.223Z,23.89
2022-08-05T12:48:27.665Z,24.02
2022-08-05T12:49:06.230Z,24.88
2022-08-05T12:50:07.249Z,25.61
2022-08-05T12:51:06.171Z,25.82
2022-08-05T12:52:14.064Z,26.05
2022-08-05T12:53:06.197Z,26.31
2022-08-05T12:54:16.977Z,26.36
2022-08-05T12:55:06.147Z,26.40